sensor_id;sensor_type;location;lat;lon;timestamp;pressure;altitude;pressure_sealevel;temperature;humidity
17785;BME280;9016;53.582;10.062;2023-11-19T00:01:34;100834.88;;;7.29;98.59
17785;BME280;9016;53.582;10.062;2023-11-19T00:04:03;100848.63;;;7.19;99.63
17785;BME280;9016;53.582;10.062;2023-11-19T00:06:32;100834.09;;;7.27;100.00
17785;BME280;9016;53.582;10.062;2023-11-19T00:09:00;100834.78;;;7.32;99.94
17785;BME280;9016;53.582;10.062;2023-11-19T00:11:31;100831.69;;;7.41;100.00
17785;BME280;9016;53.582;10.062;2023-11-19T00:14:00;100821.13;;;7.40;99.61
17785;BME280;9016;53.582;10.062;2023-11-19T00:16:28;100800.81;;;7.40;99.50
17785;BME280;9016;53.582;10.062;2023-11-19T00:18:58;100793.56;;;7.25;99.28
17785;BME280;9016;53.582;10.062;2023-11-19T00:21:26;100787.78;;;7.36;100.00
17785;BME280;9016;53.582;10.062;2023-11-19T00:23:55;100779.03;;;7.34;99.57
17785;BME280;9016;53.582;10.062;2023-11-19T00:26:25;100781.25;;;7.43;99.89
17785;BME280;9016;53.582;10.062;2023-11-19T00:28:54;100774.22;;;7.42;99.94
17785;BME280;9016;53.582;10.062;2023-11-19T00:31:23;100766.00;;;7.48;99.70
17785;BME280;9016;53.582;10.062;2023-11-19T00:33:54;100758.91;;;7.48;99.74
17785;BME280;9016;53.582;10.062;2023-11-19T00:36:22;100747.06;;;7.37;99.30
17785;BME280;9016;53.582;10.062;2023-11-19T00:38:51;100740.00;;;7.37;99.02
17785;BME280;9016;53.582;10.062;2023-11-19T00:41:20;100732.47;;;7.47;99.66
17785;BME280;9016;53.582;10.062;2023-11-19T00:43:49;100724.16;;;7.54;99.46
17785;BME280;9016;53.582;10.062;2023-11-19T00:46:18;100715.78;;;7.45;99.54
17785;BME280;9016;53.582;10.062;2023-11-19T00:48:46;100720.75;;;7.51;99.62
17785;BME280;9016;53.582;10.062;2023-11-19T00:51:15;100721.06;;;7.63;99.81
17785;BME280;9016;53.582;10.062;2023-11-19T00:53:43;100718.69;;;7.57;99.13
17785;BME280;9016;53.582;10.062;2023-11-19T00:56:12;100714.31;;;7.56;99.43
17785;BME280;9016;53.582;10.062;2023-11-19T00:58:40;100706.31;;;7.58;99.76
17785;BME280;9016;53.582;10.062;2023-11-19T01:01:08;100696.19;;;7.47;99.12
17785;BME280;9016;53.582;10.062;2023-11-19T01:03:37;100688.56;;;7.41;99.91
17785;BME280;9016;53.582;10.062;2023-11-19T01:06:06;100676.94;;;7.44;100.00
17785;BME280;9016;53.582;10.062;2023-11-19T01:08:35;100669.13;;;7.41;100.00
17785;BME280;9016;53.582;10.062;2023-11-19T01:11:06;100654.81;;;7.45;100.00
17785;BME280;9016;53.582;10.062;2023-11-19T01:13:35;100654.66;;;7.48;100.00
17785;BME280;9016;53.582;10.062;2023-11-19T01:16:03;100653.78;;;7.47;100.00
17785;BME280;9016;53.582;10.062;2023-11-19T01:18:33;100646.47;;;7.52;100.00
17785;BME280;9016;53.582;10.062;2023-11-19T01:21:04;100628.06;;;7.66;100.00
17785;BME280;9016;53.582;10.062;2023-11-19T01:23:32;100623.72;;;7.65;100.00
17785;BME280;9016;53.582;10.062;2023-11-19T01:26:00;100619.81;;;7.55;99.62
17785;BME280;9016;53.582;10.062;2023-11-19T01:28:28;100607.25;;;7.59;100.00
17785;BME280;9016;53.582;10.062;2023-11-19T01:30:57;100604.13;;;7.68;100.00
17785;BME280;9016;53.582;10.062;2023-11-19T01:33:25;100594.41;;;7.68;99.63
17785;BME280;9016;53.582;10.062;2023-11-19T01:35:54;100596.34;;;7.65;99.29
17785;BME280;9016;53.582;10.062;2023-11-19T01:38:26;100591.13;;;7.63;98.98
17785;BME280;9016;53.582;10.062;2023-11-19T01:40:56;100578.94;;;7.59;99.44
17785;BME280;9016;53.582;10.062;2023-11-19T01:43:34;100582.53;;;7.58;99.71
17785;BME280;9016;53.582;10.062;2023-11-19T01:46:04;100552.28;;;7.62;100.00
17785;BME280;9016;53.582;10.062;2023-11-19T01:48:34;100562.25;;;7.57;99.58
17785;BME280;9016;53.582;10.062;2023-11-19T01:51:04;100558.13;;;7.69;100.00
17785;BME280;9016;53.582;10.062;2023-11-19T01:53:33;100563.25;;;7.72;99.36
17785;BME280;9016;53.582;10.062;2023-11-19T01:56:03;100569.19;;;7.77;99.26
17785;BME280;9016;53.582;10.062;2023-11-19T01:58:32;100554.22;;;7.76;98.92
17785;BME280;9016;53.582;10.062;2023-11-19T02:01:01;100536.13;;;7.67;99.47
17785;BME280;9016;53.582;10.062;2023-11-19T02:03:31;100529.88;;;7.68;99.85
17785;BME280;9016;53.582;10.062;2023-11-19T02:05:59;100530.84;;;7.67;100.00
17785;BME280;9016;53.582;10.062;2023-11-19T02:08:29;100527.22;;;7.68;100.00
17785;BME280;9016;53.582;10.062;2023-11-19T02:10:58;100523.66;;;7.69;100.00
17785;BME280;9016;53.582;10.062;2023-11-19T02:13:27;100517.19;;;7.74;99.93
17785;BME280;9016;53.582;10.062;2023-11-19T02:15:55;100508.44;;;7.72;100.00
17785;BME280;9016;53.582;10.062;2023-11-19T02:18:24;100504.22;;;7.68;99.75
17785;BME280;9016;53.582;10.062;2023-11-19T02:20:55;100498.06;;;7.68;100.00
17785;BME280;9016;53.582;10.062;2023-11-19T02:23:24;100496.09;;;7.71;100.00
17785;BME280;9016;53.582;10.062;2023-11-19T02:26:02;100486.28;;;7.73;100.00
17785;BME280;9016;53.582;10.062;2023-11-19T02:28:31;100480.09;;;7.73;100.00
17785;BME280;9016;53.582;10.062;2023-11-19T02:31:00;100469.72;;;7.85;100.00
17785;BME280;9016;53.582;10.062;2023-11-19T02:33:28;100461.91;;;7.82;100.00
17785;BME280;9016;53.582;10.062;2023-11-19T02:35:56;100466.22;;;7.85;99.42
17785;BME280;9016;53.582;10.062;2023-11-19T02:38:24;100457.38;;;7.84;99.96
17785;BME280;9016;53.582;10.062;2023-11-19T02:40:52;100457.75;;;7.94;99.83
17785;BME280;9016;53.582;10.062;2023-11-19T02:43:20;100437.53;;;7.91;99.59
17785;BME280;9016;53.582;10.062;2023-11-19T02:45:50;100432.81;;;7.81;99.80
17785;BME280;9016;53.582;10.062;2023-11-19T02:48:18;100433.56;;;8.00;100.00
17785;BME280;9016;53.582;10.062;2023-11-19T02:50:47;100427.03;;;7.90;99.69
17785;BME280;9016;53.582;10.062;2023-11-19T02:53:15;100419.59;;;7.96;99.65
17785;BME280;9016;53.582;10.062;2023-11-19T02:55:44;100409.00;;;7.96;99.65
17785;BME280;9016;53.582;10.062;2023-11-19T02:58:16;100404.72;;;8.10;99.99
17785;BME280;9016;53.582;10.062;2023-11-19T03:00:51;100410.19;;;8.07;98.67
17785;BME280;9016;53.582;10.062;2023-11-19T03:03:24;100397.78;;;8.07;99.25
17785;BME280;9016;53.582;10.062;2023-11-19T03:05:55;100379.13;;;8.09;98.93
17785;BME280;9016;53.582;10.062;2023-11-19T03:08:23;100373.91;;;8.07;99.04
17785;BME280;9016;53.582;10.062;2023-11-19T03:10:52;100383.41;;;8.11;99.53
17785;BME280;9016;53.582;10.062;2023-11-19T03:13:23;100371.59;;;8.17;98.84
17785;BME280;9016;53.582;10.062;2023-11-19T03:15:53;100380.25;;;8.20;98.81
17785;BME280;9016;53.582;10.062;2023-11-19T03:18:21;100367.41;;;8.28;98.59
17785;BME280;9016;53.582;10.062;2023-11-19T03:20:49;100365.38;;;8.33;98.53
17785;BME280;9016;53.582;10.062;2023-11-19T03:23:19;100348.09;;;8.26;98.68
17785;BME280;9016;53.582;10.062;2023-11-19T03:25:46;100348.91;;;8.27;98.30
17785;BME280;9016;53.582;10.062;2023-11-19T03:28:14;100336.94;;;8.35;98.47
17785;BME280;9016;53.582;10.062;2023-11-19T03:30:42;100328.25;;;8.47;98.91
17785;BME280;9016;53.582;10.062;2023-11-19T03:33:12;100317.44;;;8.50;98.16
17785;BME280;9016;53.582;10.062;2023-11-19T03:35:40;100316.09;;;8.43;98.21
17785;BME280;9016;53.582;10.062;2023-11-19T03:38:08;100319.59;;;8.59;98.74
17785;BME280;9016;53.582;10.062;2023-11-19T03:40:36;100317.50;;;8.64;97.70
17785;BME280;9016;53.582;10.062;2023-11-19T03:43:05;100306.59;;;8.69;97.37
17785;BME280;9016;53.582;10.062;2023-11-19T03:45:34;100308.59;;;8.65;97.31
17785;BME280;9016;53.582;10.062;2023-11-19T03:48:05;100310.78;;;8.73;98.54
17785;BME280;9016;53.582;10.062;2023-11-19T03:50:35;100314.13;;;8.76;97.63
17785;BME280;9016;53.582;10.062;2023-11-19T03:53:03;100307.28;;;8.72;97.43
17785;BME280;9016;53.582;10.062;2023-11-19T03:55:31;100304.81;;;8.69;97.56
17785;BME280;9016;53.582;10.062;2023-11-19T03:57:59;100303.88;;;8.70;97.53
17785;BME280;9016;53.582;10.062;2023-11-19T04:00:27;100291.25;;;8.74;97.16
17785;BME280;9016;53.582;10.062;2023-11-19T04:02:55;100288.59;;;8.74;97.15
17785;BME280;9016;53.582;10.062;2023-11-19T04:05:23;100295.50;;;8.76;97.87
17785;BME280;9016;53.582;10.062;2023-11-19T04:07:52;100288.81;;;8.85;97.85
17785;BME280;9016;53.582;10.062;2023-11-19T04:10:20;100281.50;;;8.88;96.86
17785;BME280;9016;53.582;10.062;2023-11-19T04:12:49;100280.09;;;8.83;96.33
17785;BME280;9016;53.582;10.062;2023-11-19T04:15:18;100279.44;;;8.93;97.14
17785;BME280;9016;53.582;10.062;2023-11-19T04:17:49;100276.50;;;8.98;96.50
17785;BME280;9016;53.582;10.062;2023-11-19T04:20:18;100268.41;;;8.85;96.60
17785;BME280;9016;53.582;10.062;2023-11-19T04:22:46;100259.19;;;8.91;97.32
17785;BME280;9016;53.582;10.062;2023-11-19T04:25:15;100260.06;;;8.91;97.70
17785;BME280;9016;53.582;10.062;2023-11-19T04:27:44;100265.00;;;8.97;97.26
17785;BME280;9016;53.582;10.062;2023-11-19T04:30:14;100259.22;;;9.05;96.82
17785;BME280;9016;53.582;10.062;2023-11-19T04:32:42;100254.00;;;9.04;95.96
17785;BME280;9016;53.582;10.062;2023-11-19T04:35:10;100249.72;;;9.01;96.82
17785;BME280;9016;53.582;10.062;2023-11-19T04:37:38;100255.91;;;9.02;96.99
17785;BME280;9016;53.582;10.062;2023-11-19T04:40:07;100247.94;;;9.02;96.55
17785;BME280;9016;53.582;10.062;2023-11-19T04:42:37;100250.78;;;9.13;97.53
17785;BME280;9016;53.582;10.062;2023-11-19T04:45:07;100239.03;;;9.17;96.10
17785;BME280;9016;53.582;10.062;2023-11-19T04:47:37;100239.19;;;8.99;96.37
17785;BME280;9016;53.582;10.062;2023-11-19T04:50:06;100228.94;;;9.08;97.39
17785;BME280;9016;53.582;10.062;2023-11-19T04:52:38;100231.22;;;9.14;97.66
17785;BME280;9016;53.582;10.062;2023-11-19T04:55:09;100228.56;;;9.14;97.50
17785;BME280;9016;53.582;10.062;2023-11-19T04:57:40;100232.94;;;9.15;97.70
17785;BME280;9016;53.582;10.062;2023-11-19T05:00:10;100230.75;;;9.21;97.31
17785;BME280;9016;53.582;10.062;2023-11-19T05:02:41;100235.19;;;9.21;98.22
17785;BME280;9016;53.582;10.062;2023-11-19T05:05:10;100223.25;;;9.28;98.31
17785;BME280;9016;53.582;10.062;2023-11-19T05:07:38;100226.34;;;9.34;98.20
17785;BME280;9016;53.582;10.062;2023-11-19T05:10:07;100222.84;;;9.34;98.05
17785;BME280;9016;53.582;10.062;2023-11-19T05:12:35;100214.03;;;9.33;98.37
17785;BME280;9016;53.582;10.062;2023-11-19T05:15:06;100216.88;;;9.44;98.38
17785;BME280;9016;53.582;10.062;2023-11-19T05:17:34;100213.69;;;9.52;98.87
17785;BME280;9016;53.582;10.062;2023-11-19T05:20:05;100208.38;;;9.52;98.18
17785;BME280;9016;53.582;10.062;2023-11-19T05:22:42;100202.47;;;9.61;98.36
17785;BME280;9016;53.582;10.062;2023-11-19T05:25:10;100198.25;;;9.71;98.28
17785;BME280;9016;53.582;10.062;2023-11-19T05:27:38;100195.84;;;9.80;98.39
17785;BME280;9016;53.582;10.062;2023-11-19T05:30:08;100189.91;;;9.89;98.41
17785;BME280;9016;53.582;10.062;2023-11-19T05:32:37;100193.75;;;9.98;97.85
17785;BME280;9016;53.582;10.062;2023-11-19T05:35:07;100190.72;;;10.04;97.41
17785;BME280;9016;53.582;10.062;2023-11-19T05:37:35;100186.13;;;10.06;97.26
17785;BME280;9016;53.582;10.062;2023-11-19T05:40:05;100186.13;;;10.06;97.01
17785;BME280;9016;53.582;10.062;2023-11-19T05:42:41;100193.94;;;10.09;96.80
17785;BME280;9016;53.582;10.062;2023-11-19T05:45:13;100188.22;;;10.15;97.45
17785;BME280;9016;53.582;10.062;2023-11-19T05:47:41;100188.09;;;10.17;97.54
17785;BME280;9016;53.582;10.062;2023-11-19T05:50:10;100185.56;;;10.28;98.44
17785;BME280;9016;53.582;10.062;2023-11-19T05:52:38;100175.56;;;10.31;97.91
17785;BME280;9016;53.582;10.062;2023-11-19T05:55:07;100184.63;;;10.41;98.83
17785;BME280;9016;53.582;10.062;2023-11-19T05:57:36;100175.06;;;10.51;98.35
17785;BME280;9016;53.582;10.062;2023-11-19T06:00:08;100183.25;;;10.61;98.33
17785;BME280;9016;53.582;10.062;2023-11-19T06:02:41;100178.16;;;10.70;99.14
17785;BME280;9016;53.582;10.062;2023-11-19T06:05:09;100184.13;;;10.74;98.70
17785;BME280;9016;53.582;10.062;2023-11-19T06:07:37;100182.53;;;10.84;99.03
17785;BME280;9016;53.582;10.062;2023-11-19T06:10:06;100174.41;;;10.85;99.38
17785;BME280;9016;53.582;10.062;2023-11-19T06:12:36;100174.13;;;10.90;100.00
17785;BME280;9016;53.582;10.062;2023-11-19T06:15:08;100167.50;;;10.95;100.00
17785;BME280;9016;53.582;10.062;2023-11-19T06:17:36;100164.91;;;11.07;100.00
17785;BME280;9016;53.582;10.062;2023-11-19T06:20:07;100175.56;;;11.19;100.00
17785;BME280;9016;53.582;10.062;2023-11-19T06:22:35;100179.59;;;11.25;100.00
17785;BME280;9016;53.582;10.062;2023-11-19T06:25:04;100179.78;;;11.34;100.00
17785;BME280;9016;53.582;10.062;2023-11-19T06:27:34;100183.56;;;11.55;100.00
17785;BME280;9016;53.582;10.062;2023-11-19T06:30:03;100180.88;;;11.68;100.00
17785;BME280;9016;53.582;10.062;2023-11-19T06:32:31;100176.13;;;11.84;100.00
17785;BME280;9016;53.582;10.062;2023-11-19T06:34:59;100173.25;;;11.98;100.00
17785;BME280;9016;53.582;10.062;2023-11-19T06:37:29;100174.78;;;12.13;100.00
17785;BME280;9016;53.582;10.062;2023-11-19T06:39:57;100178.34;;;12.25;100.00
17785;BME280;9016;53.582;10.062;2023-11-19T06:42:25;100177.63;;;12.23;100.00
17785;BME280;9016;53.582;10.062;2023-11-19T06:44:53;100173.50;;;12.30;100.00
17785;BME280;9016;53.582;10.062;2023-11-19T06:47:25;100173.88;;;12.36;100.00
17785;BME280;9016;53.582;10.062;2023-11-19T06:49:55;100172.44;;;12.43;100.00
17785;BME280;9016;53.582;10.062;2023-11-19T06:52:23;100173.69;;;12.50;100.00
17785;BME280;9016;53.582;10.062;2023-11-19T06:54:53;100173.78;;;12.60;100.00
17785;BME280;9016;53.582;10.062;2023-11-19T06:57:34;100180.88;;;12.72;100.00
17785;BME280;9016;53.582;10.062;2023-11-19T07:00:02;100151.09;;;12.76;100.00
17785;BME280;9016;53.582;10.062;2023-11-19T07:02:32;100175.28;;;12.86;100.00
17785;BME280;9016;53.582;10.062;2023-11-19T07:05:00;100185.78;;;12.89;100.00
17785;BME280;9016;53.582;10.062;2023-11-19T07:07:31;100186.00;;;12.86;100.00
17785;BME280;9016;53.582;10.062;2023-11-19T07:10:01;100176.50;;;12.82;100.00
17785;BME280;9016;53.582;10.062;2023-11-19T07:12:31;100178.22;;;12.83;100.00
17785;BME280;9016;53.582;10.062;2023-11-19T07:14:59;100174.69;;;12.82;100.00
17785;BME280;9016;53.582;10.062;2023-11-19T07:17:29;100176.03;;;12.88;100.00
17785;BME280;9016;53.582;10.062;2023-11-19T07:19:57;100184.44;;;12.94;100.00
17785;BME280;9016;53.582;10.062;2023-11-19T07:22:26;100183.94;;;13.01;100.00
17785;BME280;9016;53.582;10.062;2023-11-19T07:24:56;100186.59;;;13.01;100.00
17785;BME280;9016;53.582;10.062;2023-11-19T07:27:26;100186.13;;;12.95;100.00
17785;BME280;9016;53.582;10.062;2023-11-19T07:29:55;100194.75;;;12.99;100.00
17785;BME280;9016;53.582;10.062;2023-11-19T07:32:24;100188.44;;;13.00;100.00
17785;BME280;9016;53.582;10.062;2023-11-19T07:34:52;100199.19;;;13.11;100.00
17785;BME280;9016;53.582;10.062;2023-11-19T07:37:20;100191.75;;;13.15;100.00
17785;BME280;9016;53.582;10.062;2023-11-19T07:39:49;100189.22;;;13.13;100.00
17785;BME280;9016;53.582;10.062;2023-11-19T07:42:17;100194.31;;;13.16;100.00
17785;BME280;9016;53.582;10.062;2023-11-19T07:44:46;100194.66;;;13.12;100.00
17785;BME280;9016;53.582;10.062;2023-11-19T07:47:14;100199.28;;;13.21;100.00
17785;BME280;9016;53.582;10.062;2023-11-19T07:49:42;100203.81;;;13.31;100.00
17785;BME280;9016;53.582;10.062;2023-11-19T07:52:11;100211.31;;;13.26;99.88
17785;BME280;9016;53.582;10.062;2023-11-19T07:54:42;100200.72;;;13.36;99.82
17785;BME280;9016;53.582;10.062;2023-11-19T07:57:10;100202.66;;;13.45;100.00
17785;BME280;9016;53.582;10.062;2023-11-19T07:59:38;100213.28;;;13.46;99.16
17785;BME280;9016;53.582;10.062;2023-11-19T08:02:08;100222.88;;;13.49;99.36
17785;BME280;9016;53.582;10.062;2023-11-19T08:04:36;100214.72;;;13.50;99.31
17785;BME280;9016;53.582;10.062;2023-11-19T08:07:06;100223.97;;;13.46;98.79
17785;BME280;9016;53.582;10.062;2023-11-19T08:09:34;100226.16;;;13.52;98.84
17785;BME280;9016;53.582;10.062;2023-11-19T08:12:05;100222.50;;;13.53;98.45
17785;BME280;9016;53.582;10.062;2023-11-19T08:14:33;100223.13;;;13.57;98.65
17785;BME280;9016;53.582;10.062;2023-11-19T08:17:01;100229.94;;;13.61;98.25
17785;BME280;9016;53.582;10.062;2023-11-19T08:19:31;100225.41;;;13.61;98.14
17785;BME280;9016;53.582;10.062;2023-11-19T08:21:59;100228.34;;;13.58;97.69
17785;BME280;9016;53.582;10.062;2023-11-19T08:24:27;100230.28;;;13.56;97.48
17785;BME280;9016;53.582;10.062;2023-11-19T08:26:55;100221.91;;;13.61;97.28
17785;BME280;9016;53.582;10.062;2023-11-19T08:29:25;100230.41;;;13.44;96.95
17785;BME280;9016;53.582;10.062;2023-11-19T08:31:54;100236.97;;;13.51;97.33
17785;BME280;9016;53.582;10.062;2023-11-19T08:34:22;100233.56;;;13.49;96.98
17785;BME280;9016;53.582;10.062;2023-11-19T08:36:51;100233.22;;;13.53;97.48
17785;BME280;9016;53.582;10.062;2023-11-19T08:39:20;100239.66;;;13.62;96.72
17785;BME280;9016;53.582;10.062;2023-11-19T08:41:48;100245.72;;;13.75;96.06
17785;BME280;9016;53.582;10.062;2023-11-19T08:44:17;100243.00;;;13.86;95.69
17785;BME280;9016;53.582;10.062;2023-11-19T08:46:47;100242.88;;;13.87;94.99
17785;BME280;9016;53.582;10.062;2023-11-19T08:49:15;100248.75;;;13.81;93.87
17785;BME280;9016;53.582;10.062;2023-11-19T08:51:43;100244.22;;;13.82;94.58
17785;BME280;9016;53.582;10.062;2023-11-19T08:54:13;100253.72;;;13.86;93.93
17785;BME280;9016;53.582;10.062;2023-11-19T08:56:41;100256.66;;;13.94;93.99
17785;BME280;9016;53.582;10.062;2023-11-19T08:59:09;100251.91;;;13.86;93.57
17785;BME280;9016;53.582;10.062;2023-11-19T09:01:37;100256.16;;;13.78;94.16
17785;BME280;9016;53.582;10.062;2023-11-19T09:04:05;100257.41;;;13.74;94.05
17785;BME280;9016;53.582;10.062;2023-11-19T09:06:35;100258.31;;;13.95;93.51
17785;BME280;9016;53.582;10.062;2023-11-19T09:09:03;100263.81;;;13.93;92.75
17785;BME280;9016;53.582;10.062;2023-11-19T09:11:33;100262.50;;;13.77;92.84
17785;BME280;9016;53.582;10.062;2023-11-19T09:14:01;100261.78;;;13.75;93.67
17785;BME280;9016;53.582;10.062;2023-11-19T09:16:31;100267.00;;;13.87;94.20
17785;BME280;9016;53.582;10.062;2023-11-19T09:18:59;100269.41;;;14.02;92.92
17785;BME280;9016;53.582;10.062;2023-11-19T09:21:32;100274.16;;;14.09;91.67
17785;BME280;9016;53.582;10.062;2023-11-19T09:24:01;100269.63;;;14.10;91.73
17785;BME280;9016;53.582;10.062;2023-11-19T09:26:29;100271.53;;;14.19;91.42
17785;BME280;9016;53.582;10.062;2023-11-19T09:28:58;100274.84;;;14.11;91.44
17785;BME280;9016;53.582;10.062;2023-11-19T09:31:26;100273.38;;;14.18;90.37
17785;BME280;9016;53.582;10.062;2023-11-19T09:33:54;100279.47;;;14.20;89.80
17785;BME280;9016;53.582;10.062;2023-11-19T09:36:22;100280.91;;;14.24;89.48
17785;BME280;9016;53.582;10.062;2023-11-19T09:38:50;100275.81;;;14.21;88.61
17785;BME280;9016;53.582;10.062;2023-11-19T09:41:19;100279.06;;;14.25;88.41
17785;BME280;9016;53.582;10.062;2023-11-19T09:43:47;100272.66;;;14.16;88.33
17785;BME280;9016;53.582;10.062;2023-11-19T09:46:16;100272.84;;;14.35;88.46
17785;BME280;9016;53.582;10.062;2023-11-19T09:48:45;100275.53;;;14.35;87.14
17785;BME280;9016;53.582;10.062;2023-11-19T09:51:14;100277.28;;;14.57;86.97
17785;BME280;9016;53.582;10.062;2023-11-19T09:53:42;100280.13;;;14.44;86.37
17785;BME280;9016;53.582;10.062;2023-11-19T09:56:11;100271.28;;;14.33;87.06
17785;BME280;9016;53.582;10.062;2023-11-19T09:58:41;100270.44;;;14.32;86.85
17785;BME280;9016;53.582;10.062;2023-11-19T10:01:09;100273.84;;;14.34;86.88
17785;BME280;9016;53.582;10.062;2023-11-19T10:03:46;100277.97;;;14.38;86.12
17785;BME280;9016;53.582;10.062;2023-11-19T10:06:15;100270.66;;;14.40;85.98
17785;BME280;9016;53.582;10.062;2023-11-19T10:08:45;100263.59;;;14.39;86.15
17785;BME280;9016;53.582;10.062;2023-11-19T10:11:13;100264.22;;;14.21;86.64
17785;BME280;9016;53.582;10.062;2023-11-19T10:13:42;100268.50;;;14.23;86.48
17785;BME280;9016;53.582;10.062;2023-11-19T10:16:12;100265.00;;;14.01;86.09
17785;BME280;9016;53.582;10.062;2023-11-19T10:18:45;100268.09;;;13.96;87.17
17785;BME280;9016;53.582;10.062;2023-11-19T10:21:13;100270.78;;;13.85;87.99
17785;BME280;9016;53.582;10.062;2023-11-19T10:23:51;100277.56;;;13.89;89.08
17785;BME280;9016;53.582;10.062;2023-11-19T10:26:20;100277.97;;;13.84;88.67
17785;BME280;9016;53.582;10.062;2023-11-19T10:28:49;100275.41;;;13.83;89.63
17785;BME280;9016;53.582;10.062;2023-11-19T10:31:18;100280.63;;;13.84;89.56
17785;BME280;9016;53.582;10.062;2023-11-19T10:33:51;100275.91;;;13.77;90.34
17785;BME280;9016;53.582;10.062;2023-11-19T10:36:20;100278.91;;;13.83;90.31
17785;BME280;9016;53.582;10.062;2023-11-19T10:38:54;100280.75;;;13.94;89.69
17785;BME280;9016;53.582;10.062;2023-11-19T10:41:27;100285.88;;;13.86;89.03
17785;BME280;9016;53.582;10.062;2023-11-19T10:43:55;100284.88;;;13.98;89.54
17785;BME280;9016;53.582;10.062;2023-11-19T10:46:36;100291.56;;;14.04;90.21
17785;BME280;9016;53.582;10.062;2023-11-19T10:49:06;100287.44;;;14.00;90.05
17785;BME280;9016;53.582;10.062;2023-11-19T10:51:34;100290.94;;;14.00;89.15
17785;BME280;9016;53.582;10.062;2023-11-19T10:54:04;100293.25;;;14.05;88.94
17785;BME280;9016;53.582;10.062;2023-11-19T10:56:33;100291.06;;;13.99;90.00
17785;BME280;9016;53.582;10.062;2023-11-19T10:59:02;100281.94;;;14.01;90.30
17785;BME280;9016;53.582;10.062;2023-11-19T11:01:53;100290.84;;;14.02;89.57
17785;BME280;9016;53.582;10.062;2023-11-19T11:04:26;100284.59;;;14.12;91.48
17785;BME280;9016;53.582;10.062;2023-11-19T11:06:58;100276.41;;;14.25;90.61
17785;BME280;9016;53.582;10.062;2023-11-19T11:09:27;100285.66;;;14.21;88.76
17785;BME280;9016;53.582;10.062;2023-11-19T11:11:55;100287.16;;;14.14;89.32
17785;BME280;9016;53.582;10.062;2023-11-19T11:14:25;100280.78;;;14.26;89.11
17785;BME280;9016;53.582;10.062;2023-11-19T11:16:56;100286.88;;;14.28;88.13
17785;BME280;9016;53.582;10.062;2023-11-19T11:19:27;100289.56;;;14.28;88.18
17785;BME280;9016;53.582;10.062;2023-11-19T11:21:55;100293.50;;;14.13;88.36
17785;BME280;9016;53.582;10.062;2023-11-19T11:27:43;100290.66;;;14.25;88.76
17785;BME280;9016;53.582;10.062;2023-11-19T11:30:20;100288.97;;;14.13;87.97
17785;BME280;9016;53.582;10.062;2023-11-19T11:32:59;100293.22;;;14.16;88.83
17785;BME280;9016;53.582;10.062;2023-11-19T11:35:42;100287.28;;;14.12;88.28
17785;BME280;9016;53.582;10.062;2023-11-19T11:38:14;100292.16;;;14.07;88.90
17785;BME280;9016;53.582;10.062;2023-11-19T11:41:16;100295.59;;;13.98;89.03
17785;BME280;9016;53.582;10.062;2023-11-19T11:43:47;100291.94;;;13.88;89.82
17785;BME280;9016;53.582;10.062;2023-11-19T11:46:54;100296.59;;;13.75;89.65
17785;BME280;9016;53.582;10.062;2023-11-19T11:49:27;100307.03;;;13.78;90.44
17785;BME280;9016;53.582;10.062;2023-11-19T11:52:04;100302.91;;;13.96;90.24
17785;BME280;9016;53.582;10.062;2023-11-19T11:54:33;100304.34;;;14.00;89.25
17785;BME280;9016;53.582;10.062;2023-11-19T11:57:03;100291.91;;;14.10;90.08
17785;BME280;9016;53.582;10.062;2023-11-19T11:59:46;100306.03;;;14.12;89.84
17785;BME280;9016;53.582;10.062;2023-11-19T12:02:16;100290.09;;;14.11;90.98
17785;BME280;9016;53.582;10.062;2023-11-19T12:04:47;100290.19;;;14.20;91.06
17785;BME280;9016;53.582;10.062;2023-11-19T12:07:18;100284.56;;;14.34;90.56
17785;BME280;9016;53.582;10.062;2023-11-19T12:09:51;100282.94;;;14.43;90.12
17785;BME280;9016;53.582;10.062;2023-11-19T12:12:22;100279.28;;;14.44;90.08
17785;BME280;9016;53.582;10.062;2023-11-19T12:15:07;100281.44;;;14.50;88.20
17785;BME280;9016;53.582;10.062;2023-11-19T12:17:47;100285.44;;;14.55;88.74
17785;BME280;9016;53.582;10.062;2023-11-19T12:20:19;100288.34;;;14.63;87.98
17785;BME280;9016;53.582;10.062;2023-11-19T12:22:52;100284.94;;;14.61;87.72
17785;BME280;9016;53.582;10.062;2023-11-19T12:25:21;100273.84;;;14.66;87.38
17785;BME280;9016;53.582;10.062;2023-11-19T12:27:51;100292.47;;;14.67;86.62
17785;BME280;9016;53.582;10.062;2023-11-19T12:30:21;100290.69;;;14.57;86.35
17785;BME280;9016;53.582;10.062;2023-11-19T12:32:51;100285.28;;;14.36;85.25
17785;BME280;9016;53.582;10.062;2023-11-19T12:35:20;100289.06;;;14.34;85.77
17785;BME280;9016;53.582;10.062;2023-11-19T12:37:49;100286.06;;;14.27;86.52
17785;BME280;9016;53.582;10.062;2023-11-19T12:40:20;100285.06;;;14.17;86.35
17785;BME280;9016;53.582;10.062;2023-11-19T12:42:49;100296.44;;;13.99;86.53
17785;BME280;9016;53.582;10.062;2023-11-19T12:45:17;100300.22;;;13.96;87.92
17785;BME280;9016;53.582;10.062;2023-11-19T12:47:47;100290.34;;;13.97;87.12
17785;BME280;9016;53.582;10.062;2023-11-19T12:50:17;100290.91;;;14.11;87.76
17785;BME280;9016;53.582;10.062;2023-11-19T12:52:57;100297.84;;;14.25;87.66
17785;BME280;9016;53.582;10.062;2023-11-19T12:55:28;100290.28;;;14.19;87.91
17785;BME280;9016;53.582;10.062;2023-11-19T12:57:57;100287.50;;;14.20;88.73
17785;BME280;9016;53.582;10.062;2023-11-19T13:00:26;100287.00;;;14.15;88.51
17785;BME280;9016;53.582;10.062;2023-11-19T13:02:56;100280.06;;;14.24;89.13
17785;BME280;9016;53.582;10.062;2023-11-19T13:05:26;100280.16;;;14.33;87.88
17785;BME280;9016;53.582;10.062;2023-11-19T13:08:04;100283.34;;;14.38;87.33
17785;BME280;9016;53.582;10.062;2023-11-19T13:10:50;100280.63;;;14.49;86.68